createdAt,value
2018-02-20T00:01:51.546Z,38.48
2018-02-20T00:04:20.386Z,40.20
2018-02-20T00:06:49.237Z,39.70
2018-02-20T00:09:18.086Z,41.30
2018-02-20T00:11:48.431Z,42.38
2018-02-20T00:14:17.813Z,40.12
2018-02-20T00:16:46.362Z,39.07
2018-02-20T00:19:14.716Z,37.83
2018-02-20T00:21:44.197Z,39.56
2018-02-20T00:24:12.967Z,39.58
2018-02-20T00:26:41.516Z,41.00
2018-02-20T00:29:10.356Z,40.33
2018-02-20T00:31:39.466Z,41.35
2018-02-20T00:34:09.230Z,41.20
2018-02-20T00:36:38.034Z,41.35
2018-02-20T00:39:06.704Z,39.35
2018-02-20T00:41:35.884Z,40.95
2018-02-20T00:44:04.881Z,42.03
2018-02-20T00:46:33.776Z,41.70
2018-02-20T00:49:03.309Z,41.67
2018-02-20T00:51:32.350Z,43.60
2018-02-20T00:54:00.695Z,44.28
2018-02-20T00:56:30.150Z,49.13
2018-02-20T00:58:59.256Z,47.70
2018-02-20T01:01:28.362Z,48.75
2018-02-20T01:03:56.715Z,46.40
2018-02-20T01:06:24.982Z,46.40
2018-02-20T01:08:54.009Z,42.47
2018-02-20T01:11:22.554Z,41.47
2018-02-20T01:13:52.131Z,42.85
2018-02-20T01:16:20.687Z,41.00
2018-02-20T01:18:49.060Z,40.60
2018-02-20T01:21:18.255Z,40.15
2018-02-20T01:23:46.810Z,40.25
2018-02-20T01:26:15.366Z,40.85
2018-02-20T01:28:45.832Z,41.17
2018-02-20T01:31:14.983Z,40.95
2018-02-20T01:33:43.994Z,41.17
2018-02-20T01:36:13.770Z,40.12
2018-02-20T01:38:42.635Z,42.78
2018-02-20T01:41:11.563Z,41.40
2018-02-20T01:43:40.565Z,42.08
2018-02-20T01:46:09.097Z,44.13
2018-02-20T01:48:37.432Z,41.47
2018-02-20T01:51:09.187Z,40.73
2018-02-20T01:53:37.456Z,41.35
2018-02-20T01:56:05.726Z,43.07
2018-02-20T01:58:34.012Z,42.60
2018-02-20T02:01:03.328Z,44.05
2018-02-20T02:03:32.085Z,41.20
2018-02-20T02:06:02.044Z,42.40
2018-02-20T02:08:31.561Z,43.52
2018-02-20T02:11:00.600Z,45.57
2018-02-20T02:13:29.029Z,48.33
2018-02-20T02:15:57.287Z,49.30
2018-02-20T02:18:25.860Z,50.08
2018-02-20T02:20:54.689Z,49.30
2018-02-20T02:23:23.708Z,47.45
2018-02-20T02:25:52.730Z,47.97
2018-02-20T02:28:21.030Z,48.60
2018-02-20T02:30:49.352Z,49.30
2018-02-20T02:33:18.283Z,48.28
2018-02-20T02:35:46.838Z,50.35
2018-02-20T02:38:15.109Z,49.30
2018-02-20T02:40:44.373Z,48.83
2018-02-20T02:43:12.912Z,52.85
2018-02-20T02:45:41.620Z,51.08
2018-02-20T02:48:11.041Z,49.83
2018-02-20T02:50:39.744Z,51.72
2018-02-20T02:53:08.590Z,49.28
2018-02-20T02:55:37.546Z,47.83
2018-02-20T02:58:06.595Z,47.80
2018-02-20T03:00:35.125Z,47.40
2018-02-20T03:03:03.916Z,47.95
2018-02-20T03:05:33.265Z,46.95
2018-02-20T03:08:01.546Z,45.73
2018-02-20T03:10:29.810Z,48.40
2018-02-20T03:12:58.079Z,46.65
2018-02-20T03:15:27.063Z,49.30
2018-02-20T03:17:56.553Z,52.35
2018-02-20T03:20:25.555Z,60.92
2018-02-20T03:22:55.033Z,63.58
2018-02-20T03:25:24.055Z,66.20
2018-02-20T03:27:52.333Z,67.27
2018-02-20T03:30:21.818Z,67.53
2018-02-20T03:32:50.871Z,63.58
2018-02-20T03:35:19.435Z,63.40
2018-02-20T03:37:48.188Z,61.60
2018-02-20T03:40:17.128Z,60.08
2018-02-20T03:42:45.732Z,56.58
2018-02-20T03:45:15.089Z,54.67
2018-02-20T03:47:44.353Z,52.28
2018-02-20T03:50:12.949Z,51.00
2018-02-20T03:52:42.176Z,50.58
2018-02-20T03:55:11.464Z,51.17
2018-02-20T03:57:41.147Z,50.02
2018-02-20T04:00:09.084Z,51.23
2018-02-20T04:02:37.791Z,51.30
2018-02-20T04:05:07.460Z,51.60
2018-02-20T04:07:35.737Z,52.90
2018-02-20T04:10:04.244Z,51.97
2018-02-20T04:12:33.445Z,53.65
2018-02-20T04:15:01.728Z,53.83
2018-02-20T04:17:30.495Z,50.97
2018-02-20T04:19:59.721Z,51.17
2018-02-20T04:22:28.720Z,50.90
2018-02-20T04:24:56.996Z,51.23
2018-02-20T04:27:25.626Z,52.88
2018-02-20T04:29:54.156Z,51.35
2018-02-20T04:32:23.459Z,52.67
2018-02-20T04:34:52.547Z,52.25
2018-02-20T04:37:21.087Z,51.42
2018-02-20T04:39:50.473Z,49.25
2018-02-20T04:42:19.369Z,51.35
2018-02-20T04:44:48.073Z,52.17
2018-02-20T04:47:16.616Z,49.65
2018-02-20T04:49:45.248Z,49.97
2018-02-20T04:52:14.212Z,47.62
2018-02-20T04:54:43.540Z,46.90
2018-02-20T04:57:12.108Z,46.03
2018-02-20T04:59:40.673Z,46.22
2018-02-20T05:02:08.963Z,41.53
2018-02-20T05:04:37.981Z,44.00
2018-02-20T05:07:06.267Z,43.13
2018-02-20T05:09:34.974Z,43.28
2018-02-20T05:12:03.534Z,44.00
2018-02-20T05:14:31.794Z,43.90
2018-02-20T05:17:00.656Z,43.42
2018-02-20T05:19:29.676Z,43.80
2018-02-20T05:21:58.927Z,43.17
2018-02-20T05:24:27.566Z,42.13
2018-02-20T05:26:55.891Z,44.10
2018-02-20T05:29:24.714Z,45.22
2018-02-20T05:31:54.191Z,45.67
2018-02-20T05:34:22.736Z,46.78
2018-02-20T05:36:51.204Z,47.65
2018-02-20T05:39:20.684Z,47.13
2018-02-20T05:41:49.457Z,44.42
2018-02-20T05:44:18.072Z,46.85
2018-02-20T05:46:46.348Z,44.80
2018-02-20T05:49:15.168Z,44.65
2018-02-20T05:51:44.204Z,45.63
2018-02-20T05:54:13.082Z,44.35
2018-02-20T05:56:42.327Z,45.85
2018-02-20T05:59:10.796Z,49.93
2018-02-20T06:01:39.896Z,50.42
2018-02-20T06:04:09.206Z,51.97
2018-02-20T06:06:37.484Z,50.90
2018-02-20T06:09:06.197Z,50.45
2018-02-20T06:11:34.820Z,49.87
2018-02-20T06:14:03.399Z,50.40
2018-02-20T06:16:31.937Z,48.63
2018-02-20T06:19:00.211Z,50.60
2018-02-20T06:21:28.481Z,49.25
2018-02-20T06:23:56.993Z,48.57
2018-02-20T06:26:26.697Z,48.10
2018-02-20T06:28:55.709Z,48.72
2018-02-20T06:31:23.976Z,48.33
2018-02-20T06:33:52.662Z,47.22
2018-02-20T06:36:21.203Z,48.60
2018-02-20T06:38:49.786Z,48.53
2018-02-20T06:41:18.485Z,48.63
2018-02-20T06:43:47.206Z,48.70
2018-02-20T06:46:15.465Z,48.70
2018-02-20T06:48:44.596Z,48.67
2018-02-20T06:51:13.562Z,48.00
2018-02-20T06:53:41.845Z,47.90
2018-02-20T06:56:11.346Z,47.60
2018-02-20T06:58:39.901Z,48.97
2018-02-20T07:01:08.219Z,47.90
2018-02-20T07:03:36.481Z,45.47
2018-02-20T07:06:05.371Z,47.00
2018-02-20T07:08:34.052Z,48.60
2018-02-20T07:11:02.345Z,49.47
2018-02-20T07:13:31.008Z,47.92
2018-02-20T07:15:59.963Z,48.30
2018-02-20T07:18:28.248Z,46.93
2018-02-20T07:20:56.699Z,48.58
2018-02-20T07:23:25.919Z,48.90
2018-02-20T07:25:55.416Z,47.28
2018-02-20T07:28:23.963Z,46.60
2018-02-20T07:30:53.047Z,47.15
2018-02-20T07:33:21.528Z,47.42
2018-02-20T07:35:51.262Z,47.58
2018-02-20T07:38:19.813Z,48.63
2018-02-20T07:40:48.346Z,48.73
2018-02-20T07:43:16.041Z,48.28
2018-02-20T07:45:44.593Z,49.13
2018-02-20T07:48:13.418Z,50.53
2018-02-20T07:50:41.968Z,50.83
2018-02-20T07:53:11.017Z,48.90
2018-02-20T07:55:39.780Z,49.50
2018-02-20T07:58:08.307Z,49.53
2018-02-20T08:00:37.340Z,49.13
2018-02-20T08:03:08.337Z,48.07
2018-02-20T08:05:37.391Z,49.50
2018-02-20T08:08:06.247Z,48.92
2018-02-20T08:10:34.784Z,48.22
2018-02-20T08:13:03.565Z,46.47
2018-02-20T08:15:31.887Z,49.00
2018-02-20T08:18:00.185Z,49.17
2018-02-20T08:20:28.941Z,49.90
2018-02-20T08:22:57.879Z,49.95
2018-02-20T08:25:26.680Z,51.78
2018-02-20T08:27:55.968Z,50.10
2018-02-20T08:30:24.382Z,51.50
2018-02-20T08:32:52.796Z,48.85
2018-02-20T08:35:23.630Z,54.32
2018-02-20T08:37:52.875Z,48.65
2018-02-20T08:40:21.150Z,53.63
2018-02-20T08:42:50.563Z,50.86
2018-02-20T08:45:19.101Z,51.05
2018-02-20T08:47:47.385Z,50.67
2018-02-20T08:50:15.729Z,51.50
2018-02-20T08:52:44.006Z,51.20
2018-02-20T08:55:12.278Z,51.30
2018-02-20T08:57:41.308Z,51.00
2018-02-20T09:00:10.117Z,52.38
2018-02-20T09:02:38.506Z,52.20
2018-02-20T09:05:07.833Z,51.13
2018-02-20T09:07:36.932Z,51.40
2018-02-20T09:10:06.490Z,52.00
2018-02-20T09:12:34.772Z,52.40
2018-02-20T09:15:03.308Z,50.60
2018-02-20T09:17:32.438Z,51.73
2018-02-20T09:20:01.510Z,49.80
2018-02-20T09:22:30.544Z,51.30
2018-02-20T09:24:59.686Z,51.10
2018-02-20T09:27:28.679Z,49.28
2018-02-20T09:29:57.689Z,48.28
2018-02-20T09:32:26.209Z,51.00
2018-02-20T09:34:54.481Z,48.40
2018-02-20T09:37:23.863Z,48.17
2018-02-20T09:39:52.354Z,46.08
2018-02-20T09:42:20.889Z,45.95
2018-02-20T09:44:49.798Z,44.73
2018-02-20T09:47:18.350Z,47.08
2018-02-20T09:49:47.017Z,47.17
2018-02-20T09:52:16.682Z,46.62
2018-02-20T09:54:44.987Z,45.97
2018-02-20T09:57:14.327Z,43.80
2018-02-20T09:59:45.689Z,45.01
2018-02-20T10:02:14.248Z,44.15
2018-02-20T10:04:42.877Z,43.87
2018-02-20T10:07:11.422Z,44.85
2018-02-20T10:09:40.623Z,45.92
2018-02-20T10:12:09.599Z,41.67
2018-02-20T10:14:38.397Z,41.28
2018-02-20T10:17:08.343Z,43.10
2018-02-20T10:19:37.073Z,42.47
2018-02-20T10:22:06.100Z,42.53
2018-02-20T10:24:34.375Z,39.50
2018-02-20T10:27:02.923Z,41.97
2018-02-20T10:29:32.054Z,40.95
2018-02-20T10:32:01.097Z,40.95
2018-02-20T10:34:30.449Z,40.03
2018-02-20T10:36:58.996Z,40.07
2018-02-20T10:39:27.410Z,40.43
2018-02-20T10:41:55.966Z,39.60
2018-02-20T10:44:25.041Z,38.63
2018-02-20T10:46:53.312Z,38.67
2018-02-20T10:49:21.735Z,37.10
2018-02-20T10:51:50.005Z,38.10
2018-02-20T10:54:18.618Z,40.13
2018-02-20T10:56:47.994Z,39.20
2018-02-20T10:59:16.527Z,50.92
2018-02-20T11:01:45.798Z,39.38
2018-02-20T11:04:14.334Z,38.85
2018-02-20T11:06:43.088Z,40.00
2018-02-20T11:09:11.662Z,35.45
2018-02-20T11:11:40.197Z,36.57
2018-02-20T11:14:09.933Z,37.03
2018-02-20T11:16:39.363Z,36.96
2018-02-20T11:19:07.659Z,34.23
2018-02-20T11:21:36.377Z,35.40
2018-02-20T11:24:04.676Z,36.13
2018-02-20T11:26:33.238Z,34.20
2018-02-20T11:29:01.838Z,37.22
2018-02-20T11:31:31.469Z,36.10
2018-02-20T11:34:00.020Z,32.92
2018-02-20T11:36:29.389Z,34.72
2018-02-20T11:38:58.795Z,33.34
2018-02-20T11:41:27.976Z,33.65
2018-02-20T11:43:56.391Z,32.63
2018-02-20T11:46:25.156Z,35.08
2018-02-20T11:48:54.622Z,33.17
2018-02-20T11:51:23.392Z,34.60
2018-02-20T11:53:51.912Z,33.93
2018-02-20T11:56:20.196Z,32.80
2018-02-20T11:58:49.799Z,33.80
2018-02-20T12:01:18.503Z,33.92
2018-02-20T12:03:46.610Z,34.23
2018-02-20T12:06:15.647Z,34.78
2018-02-20T12:08:44.369Z,33.88
2018-02-20T12:11:14.097Z,35.30
2018-02-20T12:13:43.398Z,34.60
2018-02-20T12:16:12.820Z,35.20
2018-02-20T12:18:41.155Z,35.78
2018-02-20T12:21:10.396Z,35.75
2018-02-20T12:23:38.554Z,34.90
2018-02-20T12:26:07.425Z,34.27
2018-02-20T12:28:35.971Z,34.45
2018-02-20T12:31:05.159Z,34.70
2018-02-20T12:33:33.853Z,34.80
2018-02-20T12:36:03.345Z,33.30
2018-02-20T12:38:32.034Z,34.05
2018-02-20T12:41:00.545Z,34.50
2018-02-20T12:43:28.965Z,34.70
2018-02-20T12:45:57.498Z,34.63
2018-02-20T12:48:26.034Z,33.65
2018-02-20T12:50:54.690Z,33.35
2018-02-20T12:53:23.211Z,33.28
2018-02-20T12:55:51.773Z,33.83
2018-02-20T12:58:20.045Z,34.20
2018-02-20T13:00:48.596Z,35.65
2018-02-20T13:03:17.795Z,33.92
2018-02-20T13:05:46.398Z,33.63
2018-02-20T13:08:14.963Z,33.25
2018-02-20T13:10:43.532Z,33.53
2018-02-20T13:13:11.665Z,32.83
2018-02-20T13:15:40.623Z,34.70
2018-02-20T13:18:09.174Z,35.25
2018-02-20T13:20:37.878Z,34.33
2018-02-20T13:23:06.733Z,35.80
2018-02-20T13:25:36.594Z,35.13
2018-02-20T13:28:04.864Z,35.27
2018-02-20T13:30:34.454Z,36.80
2018-02-20T13:33:02.711Z,34.63
2018-02-20T13:35:31.285Z,34.57
2018-02-20T13:37:59.851Z,35.90
2018-02-20T13:40:28.142Z,34.50
2018-02-20T13:42:56.439Z,34.30
2018-02-20T13:45:25.031Z,33.75
2018-02-20T13:47:53.407Z,35.50
2018-02-20T13:50:22.969Z,34.03
2018-02-20T13:52:51.256Z,36.27
2018-02-20T13:55:19.523Z,36.60
2018-02-20T13:57:48.281Z,34.78
2018-02-20T14:00:16.769Z,34.72
2018-02-20T14:02:45.017Z,36.20
2018-02-20T14:05:13.557Z,37.37
2018-02-20T14:07:42.981Z,37.92
2018-02-20T14:10:13.313Z,38.15
2018-02-20T14:12:42.673Z,37.65
2018-02-20T14:15:11.232Z,36.30
2018-02-20T14:17:40.328Z,36.87
2018-02-20T14:20:08.812Z,36.45
2018-02-20T14:22:37.317Z,36.72
2018-02-20T14:25:06.458Z,34.78
2018-02-20T14:27:34.737Z,37.57
2018-02-20T14:30:03.114Z,36.80
2018-02-20T14:32:31.676Z,37.97
2018-02-20T14:35:00.057Z,35.13
2018-02-20T14:37:28.403Z,37.88
2018-02-20T14:39:57.580Z,38.15
2018-02-20T14:42:27.850Z,38.93
2018-02-20T14:44:56.400Z,39.00
2018-02-20T14:47:24.678Z,40.80
2018-02-20T14:49:52.963Z,41.37
2018-02-20T14:52:22.434Z,39.95
2018-02-20T14:54:52.598Z,40.18
2018-02-20T14:57:20.891Z,38.67
2018-02-20T14:59:49.197Z,39.67
2018-02-20T15:02:17.494Z,39.97
2018-02-20T15:04:46.076Z,39.30
2018-02-20T15:07:14.868Z,41.22
2018-02-20T15:09:43.140Z,41.08
2018-02-20T15:12:12.363Z,41.85
2018-02-20T15:14:42.067Z,39.60
2018-02-20T15:17:11.144Z,39.80
2018-02-20T15:19:39.682Z,40.87
2018-02-20T15:22:08.287Z,42.58
2018-02-20T15:24:36.850Z,41.40
2018-02-20T15:27:05.839Z,42.38
2018-02-20T15:29:34.986Z,43.90
2018-02-20T15:32:04.314Z,41.83
2018-02-20T15:34:34.009Z,41.58
2018-02-20T15:37:02.639Z,45.08
2018-02-20T15:39:32.074Z,43.32
2018-02-20T15:42:00.523Z,44.77
2018-02-20T15:44:29.678Z,46.15
2018-02-20T15:46:59.364Z,45.78
2018-02-20T15:49:28.933Z,46.50
2018-02-20T15:51:57.487Z,46.33
2018-02-20T15:54:25.743Z,47.35
2018-02-20T15:56:54.695Z,46.80
2018-02-20T15:59:25.119Z,48.33
2018-02-20T16:01:55.453Z,46.48
2018-02-20T16:04:24.659Z,47.40
2018-02-20T16:06:53.198Z,45.30
2018-02-20T16:09:22.875Z,45.38
2018-02-20T16:11:51.332Z,44.50
2018-02-20T16:14:19.408Z,44.33
2018-02-20T16:16:47.538Z,45.87
2018-02-20T16:19:17.075Z,46.83
2018-02-20T16:21:45.520Z,46.13
2018-02-20T16:24:14.077Z,46.75
2018-02-20T16:26:42.669Z,46.78
2018-02-20T16:29:11.826Z,45.83
2018-02-20T16:31:40.754Z,46.30
2018-02-20T16:34:08.987Z,46.63
2018-02-20T16:36:38.594Z,45.12
2018-02-20T16:39:07.250Z,45.20
2018-02-20T16:41:35.851Z,45.57
2018-02-20T16:44:04.146Z,45.42
2018-02-20T16:46:32.713Z,43.63
2018-02-20T16:49:01.058Z,46.83
2018-02-20T16:51:30.397Z,47.25
2018-02-20T16:54:01.850Z,49.52
2018-02-20T16:56:30.423Z,46.80
2018-02-20T16:58:58.968Z,48.50
2018-02-20T17:01:28.023Z,49.10
2018-02-20T17:03:56.596Z,49.10
2018-02-20T17:06:25.160Z,48.50
2018-02-20T17:08:54.489Z,48.17
2018-02-20T17:11:23.041Z,50.10
2018-02-20T17:13:51.399Z,47.30
2018-02-20T17:16:20.979Z,47.62
2018-02-20T17:18:49.686Z,48.77
2018-02-20T17:21:18.091Z,50.12
2018-02-20T17:23:46.825Z,47.50
2018-02-20T17:26:15.904Z,46.33
2018-02-20T17:28:44.462Z,46.20
2018-02-20T17:31:13.009Z,48.73
2018-02-20T17:33:41.282Z,49.43
2018-02-20T17:36:11.803Z,47.92
2018-02-20T17:38:41.497Z,47.47
2018-02-20T17:41:10.043Z,47.88
2018-02-20T17:43:39.403Z,48.72
2018-02-20T17:46:07.978Z,49.63
2018-02-20T17:48:37.634Z,48.83
2018-02-20T17:51:06.216Z,46.67
2018-02-20T17:53:35.700Z,46.43
2018-02-20T17:56:04.962Z,46.00
2018-02-20T17:58:33.554Z,46.60
2018-02-20T18:01:01.839Z,47.03
2018-02-20T18:03:30.405Z,45.35
2018-02-20T18:05:59.735Z,45.02
2018-02-20T18:08:28.286Z,44.47
2018-02-20T18:10:57.757Z,44.93
2018-02-20T18:13:26.068Z,44.25
2018-02-20T18:15:54.186Z,43.28
2018-02-20T18:18:23.183Z,43.28
2018-02-20T18:20:52.839Z,41.70
2018-02-20T18:23:21.499Z,41.03
2018-02-20T18:25:50.553Z,41.55
2018-02-20T18:28:19.092Z,39.75
2018-02-20T18:30:47.709Z,38.50
2018-02-20T18:33:16.935Z,40.50
2018-02-20T18:35:45.226Z,41.17
2018-02-20T18:38:13.880Z,40.90
2018-02-20T18:40:43.002Z,39.75
2018-02-20T18:43:11.643Z,42.13
2018-02-20T18:45:41.960Z,41.18
2018-02-20T18:48:10.513Z,40.30
2018-02-20T18:50:39.610Z,40.28
2018-02-20T18:53:07.976Z,42.53
2018-02-20T18:55:36.512Z,40.25
2018-02-20T18:58:08.970Z,40.37
2018-02-20T19:00:39.534Z,41.33
2018-02-20T19:03:08.153Z,41.63
2018-02-20T19:05:37.573Z,41.04
2018-02-20T19:08:06.013Z,40.60
2018-02-20T19:10:35.377Z,40.72
2018-02-20T19:13:03.961Z,42.62
2018-02-20T19:15:33.639Z,41.95
2018-02-20T19:18:06.099Z,40.38
2018-02-20T19:20:35.260Z,42.78
2018-02-20T19:23:03.551Z,42.07
2018-02-20T19:28:07.160Z,44.80
2018-02-20T19:30:35.749Z,41.78
2018-02-20T19:33:05.421Z,44.08
2018-02-20T19:35:33.931Z,42.50
2018-02-20T19:38:02.432Z,42.53
2018-02-20T19:40:31.247Z,42.50
2018-02-20T19:42:59.710Z,40.50
2018-02-20T19:45:28.755Z,41.85
2018-02-20T19:47:57.394Z,44.23
2018-02-20T19:50:25.953Z,42.72
2018-02-20T19:52:54.549Z,44.95
2018-02-20T19:55:24.044Z,42.75
2018-02-20T19:57:53.004Z,43.90
2018-02-20T20:00:22.121Z,45.40
2018-02-20T20:02:50.962Z,46.05
2018-02-20T20:05:20.137Z,44.30
2018-02-20T20:07:48.576Z,44.40
2018-02-20T20:10:16.975Z,46.15
2018-02-20T20:12:45.575Z,45.83
2018-02-20T20:15:14.307Z,47.70
2018-02-20T20:17:42.610Z,44.57
2018-02-20T20:20:11.161Z,45.88
2018-02-20T20:22:41.182Z,43.66
2018-02-20T20:25:09.758Z,41.25
2018-02-20T20:27:38.339Z,44.70
2018-02-20T20:30:07.584Z,46.17
2018-02-20T20:32:36.615Z,45.40
2018-02-20T20:35:05.737Z,41.28
2018-02-20T20:37:34.414Z,45.50
2018-02-20T20:40:02.742Z,42.40
2018-02-20T20:42:31.551Z,44.33
2018-02-20T20:45:00.801Z,43.08
2018-02-20T20:47:29.903Z,43.17
2018-02-20T20:49:58.214Z,42.70
2018-02-20T20:52:26.794Z,43.80
2018-02-20T20:54:55.431Z,44.05
2018-02-20T20:57:24.265Z,45.12
2018-02-20T20:59:54.256Z,43.97
2018-02-20T21:02:22.836Z,43.87
2018-02-20T21:04:52.092Z,43.53
2018-02-20T21:07:20.930Z,45.50
2018-02-20T21:09:49.308Z,43.90
2018-02-20T21:12:17.991Z,42.85
2018-02-20T21:14:46.585Z,41.90
2018-02-20T21:17:17.826Z,45.25
2018-02-20T21:19:46.398Z,42.92
2018-02-20T21:22:15.810Z,44.18
2018-02-20T21:24:44.383Z,43.78
2018-02-20T21:27:14.582Z,43.02
2018-02-20T21:29:43.133Z,46.77
2018-02-20T21:32:12.334Z,44.45
2018-02-20T21:34:41.591Z,44.92
2018-02-20T21:37:10.065Z,44.28
2018-02-20T21:39:39.121Z,46.22
2018-02-20T21:42:07.439Z,46.47
2018-02-20T21:44:35.720Z,45.40
2018-02-20T21:47:04.405Z,47.53
2018-02-20T21:49:32.703Z,47.78
2018-02-20T21:52:01.359Z,46.08
2018-02-20T21:54:30.578Z,48.80
2018-02-20T21:57:00.072Z,47.72
2018-02-20T21:59:29.070Z,49.85
2018-02-20T22:01:57.764Z,50.53
2018-02-20T22:04:27.391Z,47.28
2018-02-20T22:06:55.692Z,48.07
2018-02-20T22:09:24.243Z,48.78
2018-02-20T22:11:52.946Z,49.75
2018-02-20T22:14:21.392Z,48.58
2018-02-20T22:16:50.038Z,50.20
2018-02-20T22:19:19.582Z,51.42
2018-02-20T22:21:49.814Z,51.33
2018-02-20T22:24:18.100Z,50.50
2018-02-20T22:26:46.652Z,49.35
2018-02-20T22:29:16.054Z,50.90
2018-02-20T22:31:44.606Z,54.13
2018-02-20T22:34:13.170Z,53.42
2018-02-20T22:36:42.735Z,55.06
2018-02-20T22:39:11.050Z,53.87
2018-02-20T22:41:39.601Z,53.87
2018-02-20T22:44:09.714Z,56.52
2018-02-20T22:46:38.877Z,55.78
2018-02-20T22:49:08.157Z,56.42
2018-02-20T22:51:36.727Z,55.42
2018-02-20T22:54:06.047Z,55.60
2018-02-20T22:56:34.324Z,57.57
2018-02-20T22:59:02.612Z,55.60
2018-02-20T23:01:30.896Z,57.45
2018-02-20T23:04:00.623Z,56.67
2018-02-20T23:06:29.513Z,56.10
2018-02-20T23:08:58.714Z,60.90
2018-02-20T23:11:38.563Z,56.37
2018-02-20T23:14:07.272Z,61.97
2018-02-20T23:16:35.580Z,61.70
2018-02-20T23:19:03.868Z,62.67
2018-02-20T23:21:32.338Z,63.97
2018-02-20T23:24:01.976Z,66.72
2018-02-20T23:26:30.302Z,65.00
2018-02-20T23:29:00.645Z,65.07
2018-02-20T23:31:31.364Z,63.40
2018-02-20T23:34:00.706Z,64.20
2018-02-20T23:36:29.333Z,65.03
2018-02-20T23:38:59.051Z,61.60
2018-02-20T23:41:27.343Z,60.80
2018-02-20T23:43:56.130Z,59.92
2018-02-20T23:46:24.425Z,60.23
2018-02-20T23:48:52.995Z,56.08
2018-02-20T23:51:27.954Z,57.86
2018-02-20T23:53:56.518Z,57.75
2018-02-20T23:56:25.169Z,56.37
2018-02-20T23:58:54.372Z,59.80
